Time;durP1;ratioP1;P1;durP2;ratioP2;P2;SDS_P1;SDS_P2;PMS_P1;PMS_P2;Temp;Humidity;BMP_temperature;BMP_pressure;BME280_temperature;BME280_humidity;BME280_pressure;Samples;Min_cycle;Max_cycle;Signal;HPM_P1;HPM_P2
2022/05/21 00:00:21;;;;;;;14.13;10.20;;;;;;;10.46;95.54;101814.25;6542404;22;20400;-79
2022/05/21 00:02:53;;;;;;;10.05;8.70;;;;;;;10.42;95.98;101820.28;6565464;22;20007;-81
2022/05/21 00:05:28;;;;;;;8.60;7.60;;;;;;;10.36;96.02;101806.38;6564368;22;20375;-80
2022/05/21 00:08:04;;;;;;;10.90;8.50;;;;;;;10.38;95.49;101814.19;6564488;22;20003;-81
2022/05/21 00:10:37;;;;;;;9.50;7.90;;;;;;;10.31;95.82;101804.59;6535339;22;20018;-81
2022/05/21 00:13:09;;;;;;;10.25;8.05;;;;;;;10.32;95.91;101814.13;6562253;22;20061;-81
2022/05/21 00:15:44;;;;;;;9.70;8.13;;;;;;;10.31;95.99;101815.03;6563069;22;20007;-79
2022/05/21 00:18:15;;;;;;;12.02;7.43;;;;;;;10.27;95.94;101811.53;6561747;22;20026;-79
2022/05/21 00:20:47;;;;;;;12.30;7.97;;;;;;;10.26;95.98;101811.53;6561833;22;20336;-80
2022/05/21 00:23:24;;;;;;;10.70;8.93;;;;;;;10.31;96.21;101822.84;6561104;22;20049;-81
2022/05/21 00:26:10;;;;;;;8.60;6.65;;;;;;;10.25;95.93;101813.25;6561471;22;20041;-82
2022/05/21 00:28:44;;;;;;;9.70;6.90;;;;;;;10.21;96.33;101827.13;6561421;22;20448;-81
2022/05/21 00:31:17;;;;;;;11.90;6.55;;;;;;;10.13;96.59;101821.88;6561488;22;20007;-81
2022/05/21 00:33:49;;;;;;;10.73;6.47;;;;;;;10.10;96.84;101819.25;6561605;22;20064;-79
2022/05/21 00:36:21;;;;;;;13.32;7.45;;;;;;;10.13;97.00;101828.81;6562385;22;20010;-80
2022/05/21 00:38:52;;;;;;;13.10;6.93;;;;;;;10.04;96.92;101811.38;6562088;22;20007;-81
2022/05/21 00:41:24;;;;;;;10.33;5.93;;;;;;;10.16;97.05;101828.84;6563200;22;20421;-81
2022/05/21 00:44:10;;;;;;;8.80;6.27;;;;;;;10.24;96.50;101824.53;6562176;22;20459;-81
2022/05/21 00:46:54;;;;;;;12.88;5.50;;;;;;;10.26;96.52;101815.00;6537037;22;20007;-85
2022/05/21 00:49:39;;;;;;;9.73;5.45;;;;;;;10.36;96.05;101824.63;6565752;22;20003;-79
2022/05/21 00:52:26;;;;;;;11.95;5.85;;;;;;;10.49;95.54;101829.91;6570079;22;20334;-80
2022/05/21 00:55:19;;;;;;;11.07;5.70;;;;;;;10.46;94.83;101822.06;6538756;22;20014;-81
2022/05/21 01:00:47;;;;;;;12.10;5.60;;;;;;;10.60;94.48;101827.34;6562598;22;20015;-80
2022/05/21 01:03:18;;;;;;;10.60;5.00;;;;;;;10.64;94.31;101831.69;6562094;22;20376;-80
2022/05/21 01:05:50;;;;;;;10.40;5.57;;;;;;;10.65;94.29;101826.47;6562693;22;20064;-80
2022/05/21 01:08:21;;;;;;;13.03;5.77;;;;;;;10.65;93.96;101828.22;6561146;22;20037;-80
2022/05/21 01:10:57;;;;;;;11.77;5.23;;;;;;;10.67;93.73;101824.75;6562314;22;20473;-80
2022/05/21 01:13:34;;;;;;;11.85;4.95;;;;;;;10.69;93.83;101827.34;6562010;22;20018;-80
2022/05/21 01:16:06;;;;;;;10.52;4.75;;;;;;;10.71;93.71;101825.66;6562286;22;20000;-80
2022/05/21 01:18:38;;;;;;;9.00;4.32;;;;;;;10.70;93.68;101822.16;6560823;22;20011;-80
2022/05/21 01:21:10;;;;;;;7.50;4.63;;;;;;;10.77;93.41;101825.66;6560561;22;20014;-80
2022/05/21 01:23:42;;;;;;;11.20;4.67;;;;;;;10.76;93.29;101826.53;6561833;22;20007;-80
2022/05/21 01:26:19;;;;;;;13.53;4.77;;;;;;;10.75;93.17;101824.78;6561153;22;20257;-81
2022/05/21 01:28:50;;;;;;;10.73;4.32;;;;;;;10.76;93.20;101829.13;6561480;22;20023;-80
2022/05/21 01:31:22;;;;;;;7.50;4.30;;;;;;;10.70;93.44;101814.31;6561266;22;20034;-79
2022/05/21 01:33:56;;;;;;;10.55;4.28;;;;;;;10.77;93.56;101821.31;6534728;22;20367;-82
2022/05/21 01:36:28;;;;;;;8.97;4.40;;;;;;;10.77;93.09;101817.84;6561281;22;20011;-79
2022/05/21 01:38:59;;;;;;;9.77;4.10;;;;;;;10.82;93.27;101816.13;6561248;22;20014;-79
2022/05/21 01:41:30;;;;;;;9.83;4.47;;;;;;;10.79;93.28;101820.44;6533699;22;20007;-79
2022/05/21 01:46:52;;;;;;;13.63;6.15;;;;;;;10.85;93.46;101816.13;6560844;22;20039;-80
2022/05/21 01:49:24;;;;;;;9.70;4.17;;;;;;;10.84;93.35;101806.56;6560376;22;20008;-79
2022/05/21 01:51:56;;;;;;;12.40;5.00;;;;;;;10.87;93.10;101817.00;6533639;22;20007;-81
2022/05/21 01:54:28;;;;;;;10.73;4.53;;;;;;;10.86;93.48;101812.63;6560407;22;20003;-80
2022/05/21 01:57:00;;;;;;;9.40;4.40;;;;;;;10.88;93.28;101810.91;6560839;22;20030;-79
2022/05/21 01:59:32;;;;;;;13.45;4.70;;;;;;;10.90;93.03;101818.72;6560553;22;20018;-79
2022/05/21 02:02:04;;;;;;;7.45;4.43;;;;;;;10.93;93.42;101821.34;6560343;22;20004;-79
2022/05/21 02:04:36;;;;;;;11.23;4.57;;;;;;;10.92;92.88;101807.44;6559235;22;20057;-79
2022/05/21 02:07:07;;;;;;;9.95;5.05;;;;;;;10.92;92.98;101810.03;6561191;22;20013;-80
2022/05/21 02:09:39;;;;;;;12.90;4.33;;;;;;;10.94;92.94;101823.94;6560137;22;20034;-80
2022/05/21 02:12:14;;;;;;;7.80;3.80;;;;;;;10.95;92.79;101824.84;6533993;22;20375;-82
2022/05/21 02:14:46;;;;;;;14.13;5.35;;;;;;;10.93;93.11;101827.44;6560976;22;20002;-81
2022/05/21 02:17:19;;;;;;;8.65;4.82;;;;;;;10.94;93.01;101831.78;6560805;22;20094;-82
2022/05/21 02:19:53;;;;;;;;;;;;;;;11.00;92.85;101830.06;6561181;22;20213;-80
2022/05/21 02:22:27;;;;;;;11.52;4.70;;;;;;;10.99;92.76;101828.31;6561408;22;19914;-81
2022/05/21 02:25:16;;;;;;;13.40;5.95;;;;;;;10.97;92.77;101835.28;6533248;22;20082;-81
2022/05/21 02:28:43;;;;;;;9.55;4.30;;;;;;;10.87;93.11;101819.59;6533945;22;20018;-80
2022/05/21 02:31:15;;;;;;;20.38;5.50;;;;;;;10.97;93.14;101824.84;6377049;23;20014;-81
2022/05/21 02:33:47;;;;;;;12.80;4.70;;;;;;;10.97;93.29;101822.25;6399633;23;20020;-79
2022/05/21 02:39:25;;;;;;;15.10;5.13;;;;;;;10.97;92.94;101827.47;6399488;23;20005;-80
2022/05/21 02:42:00;;;;;;;14.77;4.10;;;;;;;10.96;93.26;101821.34;6398938;23;20359;-79
2022/05/21 02:44:33;;;;;;;7.40;4.60;;;;;;;10.98;93.47;101813.53;6399313;23;20013;-78
2022/05/21 02:47:04;;;;;;;;;;;;;;;11.00;93.20;101814.41;6401125;23;20010;-80
2022/05/21 02:49:37;;;;;;;11.90;4.72;;;;;;;10.95;93.18;101825.72;6400483;23;19909;-79
2022/05/21 02:52:08;;;;;;;10.77;5.05;;;;;;;10.96;93.31;101829.19;6401367;23;20037;-81
2022/05/21 02:54:40;;;;;;;13.53;5.73;;;;;;;10.97;93.38;101825.72;6401598;23;20267;-81
2022/05/21 02:57:11;;;;;;;12.70;5.43;;;;;;;10.94;93.67;101818.72;6401753;23;20034;-80
2022/05/21 02:59:42;;;;;;;8.63;4.30;;;;;;;10.95;93.77;101833.53;6400525;23;20014;-80
2022/05/21 03:02:14;;;;;;;13.53;5.30;;;;;;;10.92;93.65;101833.53;6401083;23;20494;-80
2022/05/21 03:04:46;;;;;;;16.23;6.20;;;;;;;10.90;93.80;101827.44;6401238;23;20088;-82
2022/05/21 03:07:17;;;;;;;16.63;4.77;;;;;;;10.90;93.88;101829.16;6490962;22;20014;-80
2022/05/21 03:12:40;;;;;;;16.95;5.70;;;;;;;10.92;94.04;101830.91;6562472;22;20394;-80
2022/05/21 03:15:11;;;;;;;13.50;6.32;;;;;;;10.92;94.04;101828.31;6534508;22;20014;-79
2022/05/21 03:17:44;;;;;;;12.57;6.20;;;;;;;10.94;93.93;101825.69;6562875;22;20003;-78
2022/05/21 03:20:19;;;;;;;12.55;5.22;;;;;;;10.94;94.36;101826.56;6561286;22;20086;-79
2022/05/21 03:22:53;;;;;;;11.90;5.80;;;;;;;10.92;94.21;101824.84;6562126;22;20010;-80
2022/05/21 03:25:25;;;;;;;12.40;5.28;;;;;;;10.91;94.44;101826.56;6562424;22;20009;-81
2022/05/21 03:27:59;;;;;;;13.03;6.47;;;;;;;10.91;93.98;101816.13;6561931;22;20413;-80
2022/05/21 03:30:32;;;;;;;10.75;4.88;;;;;;;10.88;94.15;101816.13;6562553;22;20443;-81
2022/05/21 03:33:03;;;;;;;16.88;5.40;;;;;;;10.91;94.31;101823.94;6561810;22;20090;-79
2022/05/21 03:35:35;;;;;;;15.20;6.53;;;;;;;10.88;94.64;101823.06;6562459;22;20103;-80
2022/05/21 03:38:07;;;;;;;18.63;5.60;;;;;;;10.91;94.65;101823.94;6562206;22;20004;-80
2022/05/21 03:40:39;;;;;;;16.75;6.95;;;;;;;10.88;94.44;101843.94;6562873;22;20013;-80
2022/05/21 03:43:10;;;;;;;11.93;5.60;;;;;;;10.90;94.69;101832.66;6563157;22;19999;-80
2022/05/21 03:45:41;;;;;;;13.93;5.97;;;;;;;10.86;95.10;101833.50;6562836;22;19999;-79
2022/05/21 03:48:14;;;;;;;12.27;5.60;;;;;;;10.90;95.03;101832.66;6563052;22;20424;-77
2022/05/21 03:50:45;;;;;;;18.85;7.60;;;;;;;10.88;94.92;101834.41;6562343;22;20003;-80
2022/05/21 03:53:16;;;;;;;19.40;7.07;;;;;;;10.91;94.78;101836.13;6562837;22;20025;-80
2022/05/21 03:55:48;;;;;;;16.30;6.83;;;;;;;10.90;94.70;101837.88;6563871;22;20010;-79
2022/05/21 03:58:20;;;;;;;13.00;8.20;;;;;;;10.91;94.69;101833.50;6537250;22;20455;-79
2022/05/21 04:00:51;;;;;;;15.77;6.60;;;;;;;10.88;95.07;101831.78;6563587;22;20007;-79
2022/05/21 04:03:24;;;;;;;13.40;6.33;;;;;;;10.94;94.82;101843.97;6563815;22;20075;-80
2022/05/21 04:05:56;;;;;;;;;;;;;;;10.99;94.51;101847.44;6569993;22;20024;-78
2022/05/21 04:08:28;;;;;;;20.20;5.83;;;;;;;10.97;94.67;101843.97;6590762;22;19907;-80
2022/05/21 04:11:00;;;;;;;14.27;5.93;;;;;;;10.93;94.89;101842.22;6558549;22;20063;-81
2022/05/21 04:13:31;;;;;;;14.93;7.07;;;;;;;10.94;94.87;101847.44;6586425;22;20003;-80
2022/05/21 04:16:03;;;;;;;15.37;6.47;;;;;;;10.95;94.82;101843.97;6580597;22;20052;-80
2022/05/21 04:18:35;;;;;;;16.13;6.85;;;;;;;10.97;94.96;101854.41;6541559;22;20011;-80
2022/05/21 04:21:06;;;;;;;16.53;5.87;;;;;;;10.92;94.79;101843.97;6570343;22;20010;-80
2022/05/21 04:23:37;;;;;;;16.10;7.00;;;;;;;10.95;94.94;101848.31;6564674;22;20029;-79
2022/05/21 04:26:11;;;;;;;13.17;5.93;;;;;;;10.98;95.01;101847.44;6563781;22;20178;-79
2022/05/21 04:28:42;;;;;;;14.57;6.38;;;;;;;10.96;94.38;101850.03;6562146;22;20011;-79
2022/05/21 04:31:14;;;;;;;16.10;6.47;;;;;;;11.01;94.45;101863.09;6562964;22;19999;-79
2022/05/21 04:33:46;;;;;;;14.50;5.87;;;;;;;11.02;94.62;101859.66;6561058;22;19999;-80
2022/05/21 04:36:20;;;;;;;15.67;6.57;;;;;;;10.97;94.35;101851.81;6561749;22;20003;-79
2022/05/21 04:38:53;;;;;;;21.52;8.23;;;;;;;11.07;94.29;101864.00;6560831;22;20493;-80
2022/05/21 04:41:28;;;;;;;21.27;6.85;;;;;;;11.02;94.27;101863.13;6534584;22;20007;-79
2022/05/21 04:44:03;;;;;;;21.83;7.32;;;;;;;11.07;94.76;101873.56;6561983;22;20006;-78
2022/05/21 04:46:43;;;;;;;13.27;7.53;;;;;;;11.09;94.57;101871.81;6561705;22;20007;-80
2022/05/21 04:49:31;;;;;;;21.48;9.75;;;;;;;11.09;94.85;101870.09;6560870;22;20743;-79
2022/05/21 04:52:13;;;;;;;21.63;7.97;;;;;;;11.15;94.56;101871.84;6536126;22;20379;-78
2022/05/21 04:54:54;;;;;;;22.73;8.77;;;;;;;11.11;94.19;101875.34;6561941;22;20091;-79
2022/05/21 05:05:19;;;;;;;14.32;7.93;;;;;;;11.34;94.17;101880.59;6432118;23;20045;-78
2022/05/21 05:13:15;;;;;;;17.05;9.98;;;;;;;11.50;93.77;101891.94;6527408;22;20024;-79
2022/05/21 05:16:06;;;;;;;24.00;10.88;;;;;;;11.40;93.16;101870.16;6501624;22;20108;-80
2022/05/21 05:19:35;;;;;;;;;;;;;;;;;;;;;
2022/05/21 05:22:46;;;;;;;19.35;10.07;;;;;;;11.64;92.29;101891.91;6431246;23;20079;-79
2022/05/21 05:25:20;;;;;;;23.25;10.35;;;;;;;11.60;92.44;101888.44;6430622;23;20323;-80
2022/05/21 05:27:58;;;;;;;21.20;10.15;;;;;;;11.66;92.14;101887.59;6430975;23;20036;-79
2022/05/21 05:30:35;;;;;;;18.83;10.57;;;;;;;11.67;92.02;101899.75;6430671;23;20299;-79
2022/05/21 05:33:29;;;;;;;26.80;10.95;;;;;;;11.67;92.23;101903.25;6431281;23;20037;-78
2022/05/21 05:39:50;;;;;;;22.45;12.18;;;;;;;11.86;91.69;101906.75;6432131;23;20027;-79
2022/05/21 05:43:17;;;;;;;19.63;11.00;;;;;;;11.88;91.09;101914.56;6432113;23;20041;-78
2022/05/21 05:46:01;;;;;;;21.95;11.27;;;;;;;11.91;90.91;101924.16;6368770;23;20058;-79
2022/05/21 05:49:42;;;;;;;;;;;;;;;;;;;;;
2022/05/21 05:56:48;;;;;;;16.38;10.43;;;;;;;11.95;90.80;101898.06;6163658;24;20489;-78
2022/05/21 06:03:30;;;;;;;25.75;13.35;;;;;;;11.95;90.95;101921.56;6107822;24;20754;-79
2022/05/21 06:13:07;;;;;;;27.05;13.90;;;;;;;12.09;90.05;101907.63;6050194;24;20473;-79
2022/05/21 06:15:39;;;;;;;22.77;13.73;;;;;;;12.16;89.85;101925.91;6053234;24;20609;-79
2022/05/21 06:25:03;;;;;;;27.38;11.98;;;;;;;12.50;88.67;101943.28;5220494;27;2998009;-79
2022/05/21 08:16:26;;;;;;;20.33;9.30;;;;;;;15.13;69.90;102019.25;5225494;28;20053;-79
2022/05/21 12:12:41;;;;;;;;;;;;;;;;;;;;;
2022/05/21 12:36:57;;;;;;;11.23;3.28;;;;;;;23.04;38.75;102001.16;5069398;29;20049;-82
2022/05/21 13:01:34;;;;;;;;;;;;;;;;;;;;;
2022/05/21 13:04:48;;;;;;;12.13;3.22;;;;;;;21.06;41.46;101989.88;5113481;29;20543;-80
2022/05/21 13:37:52;;;;;;;;;;;;;;;;;;;;;
2022/05/21 13:41:11;;;;;;;;;;;;;;;;;;;;;
2022/05/21 14:16:31;;;;;;;;;;;;;;;;;;;;;
2022/05/21 14:26:58;;;;;;;;;;;;;;;;;;;;;
2022/05/21 14:29:38;;;;;;;10.55;3.17;;;;;;;24.64;34.51;101950.69;5095185;29;20032;-81
2022/05/21 14:48:02;;;;;;;7.68;2.97;;;;;;;22.69;40.39;101943.34;4945711;30;20051;-83
2022/05/21 14:57:46;;;;;;;10.52;3.17;;;;;;;21.38;40.82;101934.72;4890219;30;20038;-81
2022/05/21 15:27:51;;;;;;;9.05;3.17;;;;;;;24.75;34.53;101905.66;6410256;23;20026;-83
2022/05/21 15:45:43;;;;;;;10.25;3.00;;;;;;;22.23;41.11;101892.25;6260541;23;20052;-84
2022/05/21 15:52:59;;;;;;;;;;;;;;;;;;;;;
2022/05/21 15:56:25;;;;;;;9.27;2.75;;;;;;;22.98;37.96;101892.44;5976590;25;20128;-82
2022/05/21 16:13:34;;;;;;;;;;;;;;;;;;;;;
2022/05/21 16:17:30;;;;;;;;;;;;;;;;;;;;;
2022/05/21 16:27:30;;;;;;;;;;;;;;;;;;;;;
2022/05/21 18:54:53;;;;;;;;;;;;;;;;;;;;;
2022/05/21 18:58:40;;;;;;;13.25;3.53;;;;;;;18.89;54.41;101839.28;6286486;23;20043;-82
2022/05/21 19:02:40;;;;;;;;;;;;;;;;;;;;;
2022/05/21 19:20:08;;;;;;;14.10;3.80;;;;;;;17.22;59.42;101854.25;6086098;24;20049;-82
2022/05/21 22:07:36;;;;;;;;;;;;;;;;;;;;;
